Time;durP1;ratioP1;P1;durP2;ratioP2;P2;SDS_P1;SDS_P2;PMS_P1;PMS_P2;Temp;Humidity;BMP_temperature;BMP_pressure;BME280_temperature;BME280_humidity;BME280_pressure;Samples;Min_cycle;Max_cycle;Signal;HPM_P1;HPM_P2
2023/07/19 00:00:17;;;;;;;9.05;6.28;;;17.50;81.40;;;;;;5015297;28;20103;-76
2023/07/19 00:02:43;;;;;;;7.85;6.32;;;17.40;81.40;;;;;;5031272;28;20044;-76
2023/07/19 00:05:10;;;;;;;7.57;6.50;;;17.40;81.50;;;;;;5015100;28;20049;-76
2023/07/19 00:07:36;;;;;;;9.07;6.22;;;17.40;81.50;;;;;;5031356;28;20059;-76
2023/07/19 00:10:02;;;;;;;8.93;5.78;;;17.40;81.50;;;;;;5014814;28;20037;-76
2023/07/19 00:12:28;;;;;;;7.25;5.65;;;17.40;81.70;;;;;;5031296;28;20540;-76
2023/07/19 00:14:54;;;;;;;6.38;5.45;;;17.40;81.80;;;;;;4998669;28;20121;-76
2023/07/19 00:17:19;;;;;;;7.85;5.78;;;17.40;81.80;;;;;;5015049;28;20034;-76
2023/07/19 00:19:45;;;;;;;7.97;5.60;;;17.40;81.90;;;;;;5031451;28;20041;-76
2023/07/19 00:22:11;;;;;;;9.43;5.75;;;17.40;81.80;;;;;;5014782;28;20550;-76
2023/07/19 00:24:36;;;;;;;7.10;5.97;;;17.50;81.80;;;;;;4982153;28;20033;-76
2023/07/19 00:27:02;;;;;;;8.93;5.85;;;17.40;81.80;;;;;;5014651;28;20052;-76
2023/07/19 00:29:28;;;;;;;8.35;5.82;;;17.50;81.90;;;;;;4998526;28;20156;-75
2023/07/19 00:31:54;;;;;;;7.50;6.03;;;17.40;81.90;;;;;;5018242;28;20494;-76
2023/07/19 00:34:19;;;;;;;10.60;6.35;;;17.40;81.90;;;;;;5001991;28;20045;-76
2023/07/19 00:36:45;;;;;;;9.80;6.75;;;17.40;82.30;;;;;;5034539;28;20379;-76
2023/07/19 00:39:12;;;;;;;8.30;6.60;;;17.40;82.30;;;;;;5001696;28;20127;-76
2023/07/19 00:41:37;;;;;;;10.32;6.75;;;17.30;82.80;;;;;;5001673;28;20107;-76
2023/07/19 00:44:03;;;;;;;7.22;6.53;;;17.40;83.00;;;;;;5017855;28;20041;-76
2023/07/19 00:46:29;;;;;;;8.20;6.95;;;17.30;83.00;;;;;;5034351;28;20049;-76
2023/07/19 00:48:56;;;;;;;7.18;6.47;;;17.30;83.00;;;;;;5017768;28;20037;-76
2023/07/19 00:51:22;;;;;;;7.70;6.43;;;17.30;83.40;;;;;;5034311;28;20071;-76
2023/07/19 00:53:49;;;;;;;8.32;6.57;;;17.20;83.60;;;;;;5034091;28;20038;-76
2023/07/19 00:56:16;;;;;;;8.18;6.70;;;17.30;83.90;;;;;;5034245;28;20041;-76
2023/07/19 00:58:42;;;;;;;8.23;6.82;;;17.30;83.90;;;;;;5001395;28;20128;-76
2023/07/19 01:01:09;;;;;;;7.97;7.18;;;17.30;84.20;;;;;;5034097;28;20041;-76
2023/07/19 01:03:35;;;;;;;9.38;6.15;;;17.20;84.40;;;;;;5034023;28;20041;-76
2023/07/19 01:06:03;;;;;;;7.82;6.10;;;17.20;84.60;;;;;;5033956;28;20045;-76
2023/07/19 01:08:30;;;;;;;8.38;6.55;;;17.10;84.60;;;;;;5017907;28;20049;-76
2023/07/19 01:10:55;;;;;;;7.10;6.43;;;17.10;84.60;;;;;;5033863;28;20478;-76
2023/07/19 01:13:21;;;;;;;6.30;5.70;;;17.10;85.00;;;;;;5017565;28;20043;-76
2023/07/19 01:15:47;;;;;;;7.53;6.45;;;17.10;84.60;;;;;;5017353;28;20397;-76
2023/07/19 01:18:13;;;;;;;8.00;7.05;;;17.10;84.50;;;;;;5033731;28;20175;-75
2023/07/19 01:20:39;;;;;;;9.95;6.70;;;17.10;84.20;;;;;;5017682;28;20099;-76
2023/07/19 01:23:05;;;;;;;7.70;6.18;;;17.00;84.20;;;;;;5033601;28;20529;-76
2023/07/19 01:25:30;;;;;;;9.80;6.65;;;17.10;84.10;;;;;;5033556;28;20049;-76
2023/07/19 01:27:56;;;;;;;7.75;6.65;;;17.00;84.70;;;;;;5033518;28;20076;-76
2023/07/19 01:30:22;;;;;;;7.38;6.55;;;17.00;84.50;;;;;;5000839;28;20059;-76
2023/07/19 01:32:48;;;;;;;8.48;6.88;;;16.90;84.30;;;;;;5033440;28;20034;-76
2023/07/19 01:35:14;;;;;;;9.88;7.32;;;16.90;84.20;;;;;;5000683;28;20042;-76
2023/07/19 01:37:40;;;;;;;9.77;7.20;;;16.90;84.10;;;;;;5000626;28;20115;-75
2023/07/19 01:40:06;;;;;;;8.52;6.90;;;16.90;84.30;;;;;;5016722;28;20141;-76
2023/07/19 01:42:32;;;;;;;8.13;7.30;;;16.90;84.20;;;;;;5033359;28;20502;-76
2023/07/19 01:45:01;;;;;;;8.27;7.07;;;16.90;84.30;;;;;;5016940;28;20090;-76
2023/07/19 01:47:27;;;;;;;8.90;7.20;;;16.90;84.30;;;;;;5033382;28;20394;-76
2023/07/19 01:49:53;;;;;;;10.43;7.90;;;16.90;84.40;;;;;;5016714;28;20041;-75
2023/07/19 01:52:18;;;;;;;8.48;6.78;;;16.90;84.50;;;;;;5033124;28;20037;-76
2023/07/19 01:54:44;;;;;;;8.35;7.43;;;16.90;84.30;;;;;;5016471;28;20040;-76
2023/07/19 01:57:11;;;;;;;10.00;6.88;;;16.90;84.30;;;;;;5033231;28;20098;-75
2023/07/19 01:59:37;;;;;;;10.57;9.25;;;17.00;84.20;;;;;;5032976;28;20068;-76
2023/07/19 02:02:03;;;;;;;9.10;7.47;;;17.00;84.30;;;;;;5032944;28;20037;-76
2023/07/19 02:04:29;;;;;;;9.35;7.93;;;16.90;84.40;;;;;;5032816;28;20128;-76
2023/07/19 02:06:55;;;;;;;9.48;8.20;;;16.90;84.50;;;;;;5016702;28;20506;-76
2023/07/19 02:09:21;;;;;;;10.25;8.60;;;16.90;84.50;;;;;;5032783;28;20045;-76
2023/07/19 02:11:47;;;;;;;10.95;8.75;;;16.90;84.60;;;;;;5032807;28;20048;-76
2023/07/19 02:14:13;;;;;;;9.40;8.43;;;16.90;84.70;;;;;;5016206;28;20037;-76
2023/07/19 02:16:38;;;;;;;8.95;8.15;;;16.90;84.90;;;;;;5016494;28;20096;-76
2023/07/19 02:19:06;;;;;;;11.45;9.25;;;16.90;85.10;;;;;;5016217;28;20507;-76
2023/07/19 02:21:32;;;;;;;11.63;8.38;;;16.90;85.00;;;;;;5032557;28;20095;-76
2023/07/19 02:23:57;;;;;;;10.75;9.45;;;16.90;85.20;;;;;;5032396;28;20042;-76
2023/07/19 02:26:24;;;;;;;11.70;9.10;;;16.90;85.20;;;;;;5032520;28;20043;-76
2023/07/19 02:28:50;;;;;;;10.70;8.18;;;16.90;85.40;;;;;;5032302;28;20124;-76
2023/07/19 02:31:15;;;;;;;9.98;8.88;;;16.90;85.40;;;;;;5032389;28;20124;-76
2023/07/19 02:33:41;;;;;;;10.32;8.38;;;16.90;85.50;;;;;;5015865;28;20033;-76
2023/07/19 02:36:09;;;;;;;11.65;8.75;;;16.80;85.70;;;;;;5015963;28;20037;-76
2023/07/19 02:38:35;;;;;;;10.55;8.38;;;16.80;85.40;;;;;;5015836;28;20115;-76
2023/07/19 02:41:01;;;;;;;9.75;8.82;;;16.80;85.60;;;;;;5015849;28;20497;-76
2023/07/19 02:43:28;;;;;;;10.00;8.68;;;16.80;85.60;;;;;;5032153;28;20045;-76
2023/07/19 02:45:53;;;;;;;10.90;9.70;;;16.80;85.40;;;;;;5032204;28;20042;-75
2023/07/19 02:48:20;;;;;;;12.95;10.57;;;16.70;85.70;;;;;;5032066;28;20095;-76
2023/07/19 02:50:46;;;;;;;11.35;10.10;;;16.70;85.90;;;;;;5032015;28;20068;-76
2023/07/19 02:53:13;;;;;;;12.52;10.15;;;16.70;85.70;;;;;;5031334;28;20041;-76
2023/07/19 02:55:39;;;;;;;11.88;10.57;;;16.60;85.50;;;;;;5031971;28;20120;-75
2023/07/19 02:58:05;;;;;;;11.57;10.40;;;16.70;85.90;;;;;;4983129;28;20481;-76
2023/07/19 03:00:31;;;;;;;11.35;10.02;;;16.60;85.90;;;;;;5032185;28;20056;-75
2023/07/19 03:02:56;;;;;;;11.88;10.35;;;16.60;85.90;;;;;;5015700;28;20080;-75
2023/07/19 03:05:22;;;;;;;11.32;9.27;;;16.60;86.40;;;;;;5031816;28;20112;-75
2023/07/19 03:07:49;;;;;;;8.63;7.57;;;16.60;86.00;;;;;;5031951;28;20064;-75
2023/07/19 03:10:16;;;;;;;11.57;8.25;;;16.60;86.10;;;;;;5031843;28;20493;-75
2023/07/19 03:12:41;;;;;;;9.40;8.40;;;16.60;86.00;;;;;;5015273;28;20033;-75
2023/07/19 03:15:08;;;;;;;11.20;8.45;;;16.70;85.70;;;;;;5031971;28;20144;-75
2023/07/19 03:17:33;;;;;;;10.93;8.63;;;16.60;85.60;;;;;;5031969;28;20045;-75
2023/07/19 03:19:59;;;;;;;8.77;7.68;;;16.70;85.70;;;;;;5031968;28;20481;-75
2023/07/19 03:22:25;;;;;;;12.57;8.02;;;16.60;85.70;;;;;;5015214;28;20478;-75
2023/07/19 03:24:51;;;;;;;8.93;7.07;;;16.60;85.70;;;;;;5031526;28;20048;-75
2023/07/19 03:27:16;;;;;;;8.40;6.80;;;16.70;85.50;;;;;;5015135;28;20041;-75
2023/07/19 03:29:42;;;;;;;9.32;8.20;;;16.70;85.40;;;;;;4998842;28;20382;-74
2023/07/19 03:32:08;;;;;;;10.98;7.30;;;16.70;85.00;;;;;;4999268;28;20084;-74
2023/07/19 03:34:34;;;;;;;11.00;7.95;;;16.80;84.90;;;;;;5015137;28;20068;-75
2023/07/19 03:37:00;;;;;;;9.40;8.00;;;16.70;84.80;;;;;;5031424;28;20052;-75
2023/07/19 03:39:26;;;;;;;10.55;7.80;;;16.70;84.90;;;;;;5014788;28;20114;-75
2023/07/19 03:41:52;;;;;;;9.65;7.90;;;16.70;84.80;;;;;;5014465;28;20037;-75
2023/07/19 03:44:17;;;;;;;11.13;7.47;;;16.70;84.90;;;;;;5014264;28;20052;-75
2023/07/19 03:46:43;;;;;;;9.10;8.20;;;16.80;85.00;;;;;;5031159;28;20048;-75
2023/07/19 03:49:09;;;;;;;10.55;7.72;;;16.80;84.70;;;;;;5030481;28;20513;-75
2023/07/19 03:51:35;;;;;;;10.68;7.95;;;16.70;84.80;;;;;;5030435;28;20041;-75
2023/07/19 03:54:00;;;;;;;9.43;7.93;;;16.70;84.70;;;;;;5014378;28;20095;-75
2023/07/19 03:56:26;;;;;;;9.93;7.13;;;16.70;85.00;;;;;;5014249;28;20124;-75
2023/07/19 03:58:52;;;;;;;10.77;7.88;;;16.70;84.90;;;;;;5031229;28;20131;-75
2023/07/19 04:01:18;;;;;;;7.70;6.90;;;16.70;84.80;;;;;;5014874;28;20071;-75
2023/07/19 04:03:44;;;;;;;8.23;7.18;;;16.70;84.40;;;;;;4999314;28;20041;-75
2023/07/19 04:06:10;;;;;;;8.23;7.03;;;16.70;84.30;;;;;;5002600;28;20493;-75
2023/07/19 04:08:36;;;;;;;8.75;6.53;;;16.70;84.10;;;;;;5035024;28;20056;-75
2023/07/19 04:11:02;;;;;;;9.27;7.20;;;16.70;84.00;;;;;;5002216;28;20393;-75
2023/07/19 04:13:28;;;;;;;10.20;8.02;;;16.70;83.90;;;;;;5035287;28;20046;-75
2023/07/19 04:15:54;;;;;;;8.15;7.05;;;16.70;83.90;;;;;;5018482;28;20504;-75
2023/07/19 04:18:20;;;;;;;6.78;6.07;;;16.70;83.90;;;;;;5018356;28;20048;-75
2023/07/19 04:20:46;;;;;;;8.27;7.32;;;16.70;84.00;;;;;;5018417;28;20045;-75
2023/07/19 04:23:11;;;;;;;8.57;7.65;;;16.80;83.90;;;;;;5018327;28;20053;-76
2023/07/19 04:25:37;;;;;;;7.93;7.13;;;16.70;84.00;;;;;;5018295;28;20120;-75
2023/07/19 04:28:03;;;;;;;9.93;8.25;;;16.60;84.30;;;;;;5018436;28;20042;-76
2023/07/19 04:30:29;;;;;;;10.18;7.85;;;16.60;84.30;;;;;;5018170;28;20048;-76
2023/07/19 04:32:55;;;;;;;9.90;7.22;;;16.60;84.50;;;;;;5034567;28;20437;-76
2023/07/19 04:35:24;;;;;;;9.68;7.68;;;16.60;84.30;;;;;;5018101;28;20048;-76
2023/07/19 04:37:50;;;;;;;9.75;8.32;;;16.60;84.50;;;;;;5018029;28;20089;-76
2023/07/19 04:40:16;;;;;;;8.90;7.82;;;16.70;84.40;;;;;;5017931;28;20053;-76
2023/07/19 04:42:43;;;;;;;14.20;8.60;;;16.70;84.60;;;;;;5034536;28;20049;-76
2023/07/19 04:45:09;;;;;;;19.23;8.48;;;16.70;84.60;;;;;;5034472;28;20049;-76
2023/07/19 04:47:37;;;;;;;9.32;8.10;;;16.70;84.80;;;;;;5034307;28;20057;-76
2023/07/19 04:50:06;;;;;;;8.35;7.13;;;16.70;84.80;;;;;;5034260;28;20041;-76
2023/07/19 04:52:32;;;;;;;7.20;6.20;;;16.70;84.80;;;;;;5017742;28;20044;-76
2023/07/19 04:54:58;;;;;;;9.68;6.93;;;16.70;84.70;;;;;;5001396;28;20120;-76
2023/07/19 04:57:24;;;;;;;6.93;5.88;;;16.80;84.70;;;;;;5034190;28;20099;-75
2023/07/19 04:59:49;;;;;;;7.05;5.05;;;16.80;84.60;;;;;;5017980;28;20037;-76
2023/07/19 05:02:15;;;;;;;7.25;4.78;;;16.90;83.70;;;;;;5017697;28;20547;-76
2023/07/19 05:04:41;;;;;;;5.28;3.30;;;16.90;83.70;;;;;;5017697;28;20163;-76
2023/07/19 05:07:06;;;;;;;7.50;3.42;;;16.90;83.50;;;;;;5034059;28;20038;-75
2023/07/19 05:09:32;;;;;;;5.80;3.35;;;16.90;83.40;;;;;;5033883;28;20049;-76
2023/07/19 05:11:58;;;;;;;4.85;3.28;;;16.80;84.10;;;;;;5034220;28;20091;-76
2023/07/19 05:14:25;;;;;;;5.22;2.92;;;16.80;84.60;;;;;;5031621;28;20219;-76
2023/07/19 05:16:51;;;;;;;9.05;3.67;;;16.80;84.60;;;;;;5053315;28;20501;-76
2023/07/19 05:19:16;;;;;;;5.65;3.60;;;16.80;84.80;;;;;;5053864;28;20076;-76
2023/07/19 05:21:42;;;;;;;7.32;4.05;;;16.80;85.30;;;;;;5020610;28;20501;-76
2023/07/19 05:24:08;;;;;;;5.80;4.30;;;16.70;85.40;;;;;;5053853;28;20052;-75
2023/07/19 05:26:33;;;;;;;5.88;3.55;;;16.70;85.70;;;;;;5044502;28;20037;-75
2023/07/19 05:28:59;;;;;;;5.03;3.70;;;16.60;85.90;;;;;;5042978;28;20044;-75
2023/07/19 05:31:25;;;;;;;6.13;4.00;;;16.50;86.10;;;;;;5042371;28;20033;-75
2023/07/19 05:33:51;;;;;;;5.97;3.67;;;16.50;86.10;;;;;;5036245;28;20065;-75
2023/07/19 05:36:16;;;;;;;5.53;3.28;;;16.50;86.20;;;;;;5043829;28;20448;-75
2023/07/19 05:38:42;;;;;;;5.88;3.70;;;16.50;86.30;;;;;;5043329;28;20053;-75
2023/07/19 05:41:08;;;;;;;5.30;4.30;;;16.50;86.20;;;;;;5007597;28;20124;-76
2023/07/19 05:43:33;;;;;;;7.38;3.80;;;16.50;86.20;;;;;;5026793;28;20037;-75
2023/07/19 05:46:07;;;;;;;7.40;4.38;;;16.50;86.20;;;;;;5041458;28;20044;-75
2023/07/19 05:48:33;;;;;;;4.47;3.23;;;16.60;86.30;;;;;;5025780;28;20045;-75
2023/07/19 05:51:04;;;;;;;6.10;4.05;;;16.60;86.20;;;;;;5041741;28;20329;-75
2023/07/19 05:53:30;;;;;;;10.00;3.92;;;16.60;86.00;;;;;;5025711;28;20384;-76
2023/07/19 05:55:56;;;;;;;8.85;4.20;;;16.70;85.90;;;;;;5042952;28;20045;-76
2023/07/19 05:58:22;;;;;;;6.05;2.78;;;16.70;85.70;;;;;;5043907;28;20037;-75
2023/07/19 06:00:48;;;;;;;5.25;3.38;;;16.70;85.70;;;;;;5041424;28;20107;-75
2023/07/19 06:03:16;;;;;;;8.20;3.85;;;16.80;85.80;;;;;;5043528;28;20506;-76
2023/07/19 06:05:43;;;;;;;4.63;3.28;;;16.80;85.60;;;;;;5050810;28;20037;-76
2023/07/19 06:08:10;;;;;;;6.00;3.33;;;16.80;85.80;;;;;;5036113;28;20044;-75
2023/07/19 06:10:36;;;;;;;5.00;3.05;;;16.90;85.70;;;;;;5052722;28;20059;-75
2023/07/19 06:13:03;;;;;;;4.55;3.45;;;16.90;86.00;;;;;;5052597;28;20037;-76
2023/07/19 06:15:30;;;;;;;7.28;3.10;;;16.90;85.70;;;;;;5052609;28;20489;-76
2023/07/19 06:17:56;;;;;;;4.60;2.85;;;17.00;85.70;;;;;;5052576;28;20041;-75
2023/07/19 06:20:22;;;;;;;5.60;3.15;;;17.00;85.70;;;;;;5019684;28;20061;-76
2023/07/19 06:22:47;;;;;;;4.18;2.67;;;16.90;85.70;;;;;;5036147;28;20044;-76
2023/07/19 06:25:14;;;;;;;3.83;3.05;;;17.00;85.70;;;;;;5036182;28;20481;-76
2023/07/19 06:27:40;;;;;;;4.28;2.70;;;17.00;85.50;;;;;;5051764;28;20447;-75
2023/07/19 06:30:06;;;;;;;6.95;3.03;;;17.00;85.50;;;;;;5035955;28;20033;-76
2023/07/19 06:32:32;;;;;;;7.35;3.88;;;17.00;85.70;;;;;;5052559;28;20416;-76
2023/07/19 06:34:57;;;;;;;4.78;2.85;;;17.10;85.70;;;;;;5035592;28;20127;-76
2023/07/19 06:37:23;;;;;;;7.55;2.90;;;17.10;85.30;;;;;;5019297;28;20041;-76
2023/07/19 06:39:49;;;;;;;4.75;2.67;;;17.20;85.20;;;;;;5052006;28;20061;-76
2023/07/19 06:42:15;;;;;;;3.22;2.50;;;17.30;85.10;;;;;;5035493;28;20040;-76
2023/07/19 06:44:40;;;;;;;4.20;2.40;;;17.30;84.70;;;;;;5019002;28;20155;-75
2023/07/19 06:47:06;;;;;;;4.90;2.35;;;17.30;84.90;;;;;;5032367;28;20041;-75
2023/07/19 06:49:32;;;;;;;4.60;2.40;;;17.30;85.10;;;;;;5028449;28;20584;-77
2023/07/19 06:51:58;;;;;;;4.88;2.60;;;17.40;85.20;;;;;;5019105;28;20055;-77
2023/07/19 06:54:24;;;;;;;3.22;2.17;;;17.40;85.10;;;;;;5009151;28;20050;-77
2023/07/19 06:56:50;;;;;;;4.20;2.83;;;17.40;85.20;;;;;;5017461;28;20045;-77
2023/07/19 06:59:16;;;;;;;2.63;2.25;;;17.50;85.20;;;;;;5029382;28;20059;-77
2023/07/19 07:01:41;;;;;;;4.28;2.53;;;17.50;85.00;;;;;;5017910;28;20049;-77
2023/07/19 07:04:08;;;;;;;4.95;2.47;;;17.50;84.90;;;;;;4994243;28;20041;-77
2023/07/19 07:06:34;;;;;;;4.38;2.08;;;17.60;84.70;;;;;;5018539;28;20555;-77
2023/07/19 07:09:00;;;;;;;4.85;1.70;;;17.70;84.60;;;;;;5018704;28;20061;-77
2023/07/19 07:11:26;;;;;;;3.10;1.90;;;17.70;84.30;;;;;;5020278;28;20111;-77
2023/07/19 07:13:51;;;;;;;3.47;2.50;;;17.80;84.30;;;;;;5024144;28;20041;-77
2023/07/19 07:16:17;;;;;;;3.42;2.10;;;17.80;83.90;;;;;;5013573;28;20041;-77
2023/07/19 07:18:43;;;;;;;3.95;1.92;;;17.90;84.00;;;;;;5019121;28;20052;-76
2023/07/19 07:21:09;;;;;;;3.53;1.80;;;18.00;83.60;;;;;;5035090;28;20076;-77
2023/07/19 07:23:34;;;;;;;4.22;2.13;;;18.10;82.50;;;;;;5020149;28;20101;-77
2023/07/19 07:26:00;;;;;;;4.05;2.50;;;18.20;81.70;;;;;;5034558;28;20059;-77
2023/07/19 07:28:26;;;;;;;4.85;2.50;;;18.20;81.70;;;;;;5019632;28;20475;-77
2023/07/19 07:30:52;;;;;;;3.13;2.70;;;18.20;81.40;;;;;;5004471;28;20049;-77
2023/07/19 07:33:19;;;;;;;9.02;2.35;;;18.20;81.20;;;;;;5018064;28;20063;-77
2023/07/19 07:35:45;;;;;;;8.13;2.53;;;18.30;81.50;;;;;;5031214;28;20049;-76
2023/07/19 07:38:11;;;;;;;3.85;2.13;;;18.40;81.40;;;;;;5018392;28;21408;-77
2023/07/19 07:40:37;;;;;;;3.30;2.25;;;18.50;81.00;;;;;;5025345;28;20062;-77
2023/07/19 07:43:02;;;;;;;7.38;2.45;;;18.60;80.80;;;;;;5024008;28;20441;-76
2023/07/19 07:45:28;;;;;;;3.85;2.35;;;18.70;80.10;;;;;;5037576;28;20056;-76
2023/07/19 07:47:54;;;;;;;5.10;2.17;;;18.80;79.30;;;;;;5022660;28;20535;-77
2023/07/19 07:50:22;;;;;;;8.25;2.72;;;18.90;78.20;;;;;;5001804;28;20080;-78
2023/07/19 07:52:48;;;;;;;5.85;2.55;;;18.90;78.30;;;;;;5044927;28;20164;-77
2023/07/19 07:55:14;;;;;;;4.03;2.40;;;19.00;78.40;;;;;;5025013;28;20041;-77
2023/07/19 07:57:40;;;;;;;6.68;2.25;;;19.10;78.40;;;;;;5035797;28;20932;-76
2023/07/19 08:00:06;;;;;;;2.70;1.75;;;19.10;77.60;;;;;;5025898;28;20497;-76
2023/07/19 08:02:32;;;;;;;5.63;2.00;;;19.00;76.70;;;;;;5038641;28;20050;-76
2023/07/19 08:04:58;;;;;;;5.45;2.03;;;18.90;77.00;;;;;;5022645;28;20034;-75
2023/07/19 08:07:26;;;;;;;4.97;2.42;;;18.90;77.70;;;;;;5018683;28;20038;-76
2023/07/19 08:09:53;;;;;;;4.60;2.08;;;18.80;78.00;;;;;;5019240;28;20044;-76
2023/07/19 08:12:20;;;;;;;4.75;2.70;;;18.80;78.40;;;;;;5018850;28;20092;-76
2023/07/19 08:14:46;;;;;;;4.40;1.55;;;19.00;78.40;;;;;;5019072;28;20038;-77
2023/07/19 08:17:11;;;;;;;4.80;1.90;;;19.20;77.20;;;;;;5035396;28;20390;-76
2023/07/19 08:19:38;;;;;;;3.95;2.08;;;19.30;74.90;;;;;;5035455;28;20048;-76
2023/07/19 08:22:04;;;;;;;4.40;1.98;;;19.30;74.60;;;;;;4986831;28;20115;-76
2023/07/19 08:24:31;;;;;;;3.88;2.70;;;19.30;74.40;;;;;;5035014;28;20255;-76
2023/07/19 08:26:57;;;;;;;5.13;2.47;;;19.40;74.90;;;;;;5002374;28;20482;-76
2023/07/19 08:29:23;;;;;;;6.13;2.00;;;19.50;74.40;;;;;;5018575;28;20600;-76
2023/07/19 08:31:49;;;;;;;2.92;1.65;;;19.60;73.90;;;;;;5018401;28;20049;-76
2023/07/19 08:34:14;;;;;;;3.70;1.60;;;19.70;73.50;;;;;;5002219;28;20033;-76
2023/07/19 08:36:40;;;;;;;4.45;2.10;;;19.70;72.50;;;;;;5034766;28;20551;-76
2023/07/19 08:39:06;;;;;;;3.45;1.60;;;19.70;72.40;;;;;;4985678;28;20060;-76
2023/07/19 08:41:34;;;;;;;2.65;1.45;;;19.80;73.50;;;;;;5018414;28;20045;-77
2023/07/19 08:44:00;;;;;;;3.88;1.90;;;19.70;73.10;;;;;;5034907;28;20041;-76
2023/07/19 08:46:26;;;;;;;4.22;1.90;;;19.50;73.00;;;;;;5018347;28;20084;-77
2023/07/19 08:48:52;;;;;;;4.68;1.60;;;19.50;73.60;;;;;;5001858;28;20140;-76
2023/07/19 08:51:18;;;;;;;5.65;2.63;;;19.60;74.00;;;;;;5033420;28;20524;-76
2023/07/19 08:53:44;;;;;;;3.05;1.88;;;19.80;73.80;;;;;;5017763;28;20072;-76
2023/07/19 08:56:14;;;;;;;4.95;1.85;;;20.00;72.70;;;;;;5033997;28;20486;-74
2023/07/19 08:58:40;;;;;;;5.72;1.75;;;20.00;72.50;;;;;;5022951;28;20049;-74
2023/07/19 09:01:07;;;;;;;6.25;2.25;;;20.00;72.20;;;;;;5034479;28;20077;-75
2023/07/19 09:03:33;;;;;;;5.65;1.95;;;19.90;72.50;;;;;;5042148;28;20493;-75
2023/07/19 09:05:59;;;;;;;5.55;1.70;;;19.90;72.90;;;;;;5040554;28;20045;-75
2023/07/19 09:08:38;;;;;;;7.45;2.25;;;19.90;71.60;;;;;;5035322;28;20046;-75
2023/07/19 09:11:04;;;;;;;2.85;1.52;;;19.80;71.60;;;;;;5017564;28;20128;-75
2023/07/19 09:13:36;;;;;;;5.00;1.70;;;19.80;71.30;;;;;;5034090;28;20045;-75
2023/07/19 09:16:05;;;;;;;4.50;1.83;;;19.70;71.50;;;;;;5034387;28;20037;-78
2023/07/19 09:18:37;;;;;;;5.00;1.52;;;19.70;71.50;;;;;;5017922;28;20053;-78
2023/07/19 09:21:04;;;;;;;5.50;1.90;;;19.70;71.80;;;;;;5017927;28;20033;-78
2023/07/19 09:23:36;;;;;;;5.30;1.70;;;19.70;72.00;;;;;;5034264;28;20043;-78
2023/07/19 09:26:03;;;;;;;5.85;1.80;;;19.80;71.90;;;;;;5017756;28;20041;-78
2023/07/19 09:28:30;;;;;;;3.08;1.75;;;19.80;72.00;;;;;;5034008;28;20045;-79
2023/07/19 09:30:58;;;;;;;2.78;1.65;;;19.90;71.70;;;;;;5001133;28;20075;-80
2023/07/19 09:33:28;;;;;;;3.63;1.85;;;19.90;70.70;;;;;;5017805;28;20041;-78
2023/07/19 09:35:55;;;;;;;7.10;1.75;;;19.90;70.70;;;;;;5034335;28;20037;-78
2023/07/19 09:38:22;;;;;;;5.07;2.05;;;20.10;70.70;;;;;;5033994;28;20049;-78
2023/07/19 09:40:50;;;;;;;5.25;2.13;;;20.20;70.70;;;;;;5000737;28;20401;-77
2023/07/19 09:43:16;;;;;;;6.95;2.15;;;20.20;71.10;;;;;;5019663;28;20040;-77
2023/07/19 09:45:45;;;;;;;3.22;1.65;;;20.20;71.20;;;;;;5042183;28;20090;-77
2023/07/19 09:48:11;;;;;;;9.43;2.75;;;20.30;71.10;;;;;;5042117;28;20403;-77
2023/07/19 09:50:41;;;;;;;4.10;2.22;;;20.40;70.90;;;;;;5022338;28;20048;-77
2023/07/19 09:53:13;;;;;;;6.72;2.70;;;20.50;70.90;;;;;;5027699;28;20075;-77
2023/07/19 09:55:39;;;;;;;6.05;2.42;;;20.50;71.00;;;;;;5035347;28;20115;-76
2023/07/19 09:58:12;;;;;;;2.90;1.70;;;20.60;70.70;;;;;;5040265;28;20610;-76
2023/07/19 10:00:39;;;;;;;3.20;2.25;;;20.60;70.30;;;;;;5039225;28;20094;-76
2023/07/19 10:03:08;;;;;;;4.15;2.10;;;20.70;70.20;;;;;;5038012;28;20052;-77
2023/07/19 10:05:36;;;;;;;6.47;2.55;;;20.80;70.00;;;;;;5024053;28;20056;-76
2023/07/19 10:08:06;;;;;;;5.43;1.80;;;20.90;70.20;;;;;;5023921;28;20409;-75
2023/07/19 10:10:42;;;;;;;4.85;1.55;;;21.20;69.20;;;;;;5024856;28;20044;-75
2023/07/19 10:13:08;;;;;;;6.03;1.80;;;21.40;68.10;;;;;;5039027;28;20059;-76
2023/07/19 10:15:37;;;;;;;3.45;1.40;;;21.40;67.50;;;;;;5039720;28;20055;-76
2023/07/19 10:18:11;;;;;;;3.55;2.35;;;21.30;66.70;;;;;;5021513;28;20065;-75
2023/07/19 10:20:37;;;;;;;7.32;2.75;;;21.10;67.70;;;;;;5038939;28;20132;-78
2023/07/19 10:23:05;;;;;;;4.20;2.38;;;21.00;68.80;;;;;;5035059;28;20092;-75
2023/07/19 10:25:44;;;;;;;4.97;2.15;;;21.10;69.30;;;;;;5033496;28;20150;-76
2023/07/19 10:28:12;;;;;;;4.30;1.95;;;21.30;69.50;;;;;;5032895;28;20421;-75
2023/07/19 10:30:46;;;;;;;5.22;1.77;;;21.40;67.90;;;;;;5016261;28;20069;-76
2023/07/19 10:33:14;;;;;;;4.00;1.90;;;21.30;67.80;;;;;;5032745;28;20508;-76
2023/07/19 10:35:40;;;;;;;3.15;1.60;;;21.20;67.70;;;;;;5032794;28;20071;-76
2023/07/19 10:38:30;;;;;;;4.03;1.50;;;21.30;67.60;;;;;;5032489;28;20042;-76
2023/07/19 10:40:57;;;;;;;4.95;1.50;;;21.50;66.80;;;;;;5023785;28;20056;-77
2023/07/19 10:43:24;;;;;;;3.00;1.30;;;21.80;65.20;;;;;;5040286;28;20037;-74
2023/07/19 10:45:52;;;;;;;4.18;1.70;;;21.90;65.10;;;;;;5041474;28;20175;-74
2023/07/19 10:48:19;;;;;;;3.67;1.50;;;21.90;64.90;;;;;;5039819;28;20049;-75
2023/07/19 10:50:46;;;;;;;4.15;1.42;;;21.70;65.70;;;;;;5032478;28;20049;-74
2023/07/19 10:53:14;;;;;;;3.97;1.30;;;21.50;65.80;;;;;;5016164;28;20045;-76
2023/07/19 10:55:40;;;;;;;2.95;1.40;;;21.50;65.80;;;;;;5032744;28;20053;-76
2023/07/19 10:58:06;;;;;;;3.25;1.60;;;21.60;65.50;;;;;;5032445;28;20482;-75
2023/07/19 11:00:35;;;;;;;2.17;1.55;;;21.80;65.40;;;;;;5032152;28;20037;-76
2023/07/19 11:03:01;;;;;;;2.33;1.02;;;22.00;64.30;;;;;;5032427;28;20049;-77
2023/07/19 11:05:26;;;;;;;3.05;1.42;;;22.10;64.10;;;;;;5015908;28;20038;-75
2023/07/19 11:07:52;;;;;;;3.20;1.33;;;22.40;62.50;;;;;;5015866;28;20045;-76
2023/07/19 11:10:18;;;;;;;2.95;2.10;;;22.20;62.40;;;;;;5015651;28;20037;-75
2023/07/19 11:12:44;;;;;;;2.90;1.33;;;22.20;62.10;;;;;;5044046;28;20079;-75
2023/07/19 11:15:10;;;;;;;3.47;1.05;;;22.10;61.70;;;;;;5051217;28;20061;-75
2023/07/19 11:17:38;;;;;;;4.15;1.67;;;22.00;62.60;;;;;;5035358;28;20091;-74
2023/07/19 11:20:05;;;;;;;4.70;1.45;;;22.10;63.00;;;;;;5035698;28;20500;-76
2023/07/19 11:22:31;;;;;;;2.58;1.30;;;22.30;63.20;;;;;;5035234;28;20489;-76
2023/07/19 11:24:57;;;;;;;2.63;1.30;;;22.40;62.40;;;;;;5051714;28;20048;-76
2023/07/19 11:27:36;;;;;;;3.35;1.60;;;22.50;61.50;;;;;;5035259;28;20041;-76
2023/07/19 11:30:03;;;;;;;3.65;1.25;;;22.80;61.00;;;;;;5027984;28;20404;-74
2023/07/19 11:32:29;;;;;;;2.25;1.20;;;22.90;60.50;;;;;;5031717;28;20434;-76
2023/07/19 11:34:57;;;;;;;1.70;1.10;;;22.90;60.50;;;;;;4998986;28;20064;-76
2023/07/19 11:37:31;;;;;;;2.40;1.35;;;22.70;60.20;;;;;;5031925;28;20045;-76
2023/07/19 11:39:58;;;;;;;2.00;1.27;;;22.40;60.00;;;;;;5031636;28;20111;-75
2023/07/19 11:42:46;;;;;;;3.88;1.60;;;22.50;60.50;;;;;;5031561;28;20045;-76
2023/07/19 11:45:34;;;;;;;3.85;1.38;;;22.70;59.40;;;;;;5017240;28;20073;-76
2023/07/19 11:48:01;;;;;;;3.35;1.33;;;22.90;58.20;;;;;;5051896;28;20131;-75
2023/07/19 11:50:27;;;;;;;3.22;1.13;;;23.10;59.10;;;;;;5051796;28;20063;-76
2023/07/19 11:53:01;;;;;;;2.72;1.30;;;23.10;58.30;;;;;;5050922;28;20120;-76
2023/07/19 11:55:29;;;;;;;4.88;1.52;;;23.20;57.90;;;;;;5051528;28;20044;-75
2023/07/19 11:58:02;;;;;;;3.92;1.35;;;23.20;57.80;;;;;;5051801;28;20045;-75
2023/07/19 12:00:29;;;;;;;3.03;1.30;;;23.20;57.50;;;;;;5051717;28;20493;-76
2023/07/19 12:02:55;;;;;;;4.07;1.60;;;22.90;56.70;;;;;;5034838;28;20464;-75
2023/07/19 12:05:24;;;;;;;1.63;1.08;;;22.80;57.60;;;;;;5051327;28;20045;-74
2023/07/19 12:07:52;;;;;;;2.70;1.38;;;22.90;57.80;;;;;;5051192;28;20115;-74
2023/07/19 12:10:20;;;;;;;2.92;1.33;;;23.00;57.00;;;;;;5051075;28;20048;-74
2023/07/19 12:12:49;;;;;;;2.25;1.40;;;22.90;57.10;;;;;;5034339;28;20036;-75
2023/07/19 12:15:16;;;;;;;2.20;1.30;;;22.90;57.70;;;;;;5018495;28;20075;-74
2023/07/19 12:17:43;;;;;;;4.15;1.80;;;22.90;57.70;;;;;;5034399;28;20052;-74
2023/07/19 12:20:09;;;;;;;2.13;1.17;;;23.10;56.50;;;;;;5034498;28;20041;-74
2023/07/19 12:22:38;;;;;;;2.40;1.27;;;23.00;56.20;;;;;;5050963;28;20037;-75
2023/07/19 12:25:05;;;;;;;2.78;1.10;;;22.80;56.20;;;;;;5050957;28;20037;-75
2023/07/19 12:27:31;;;;;;;2.60;1.80;;;22.70;56.30;;;;;;5038125;28;20452;-75
2023/07/19 12:29:58;;;;;;;4.03;1.10;;;22.70;56.90;;;;;;5037894;28;20041;-75
2023/07/19 12:32:25;;;;;;;1.98;1.05;;;22.80;57.00;;;;;;5037943;28;20068;-75
2023/07/19 12:34:51;;;;;;;3.83;1.00;;;22.90;55.60;;;;;;5037851;28;20048;-74
2023/07/19 12:37:16;;;;;;;2.97;0.95;;;23.10;54.50;;;;;;5054546;28;20033;-75
2023/07/19 12:39:42;;;;;;;2.90;1.20;;;23.30;54.80;;;;;;5037776;28;20136;-75
2023/07/19 12:42:09;;;;;;;4.45;0.95;;;23.60;54.40;;;;;;5021224;28;20053;-75